createdAt,value
2023-01-23T00:00:58.019Z,13.85
2023-01-23T00:03:25.034Z,14.07
2023-01-23T00:06:03.085Z,14.07
2023-01-23T00:08:30.965Z,13.82
2023-01-23T00:10:58.808Z,12.75
2023-01-23T00:13:25.701Z,15.07
2023-01-23T00:15:52.691Z,13.65
2023-01-23T00:18:19.572Z,13.25
2023-01-23T00:20:46.446Z,15.52
2023-01-23T00:23:13.431Z,12.38
2023-01-23T00:25:40.336Z,11.57
2023-01-23T00:28:07.244Z,16.27
2023-01-23T00:30:34.275Z,14.80
2023-01-23T00:33:01.317Z,12.95
2023-01-23T00:35:28.332Z,15.02
2023-01-23T00:37:55.362Z,15.50
2023-01-23T00:40:22.493Z,15.10
2023-01-23T00:42:49.456Z,18.00
2023-01-23T00:45:16.796Z,15.35
2023-01-23T00:47:43.728Z,15.93
2023-01-23T00:50:11.369Z,15.70
2023-01-23T00:52:38.300Z,13.75
2023-01-23T00:55:05.805Z,14.95
2023-01-23T00:57:32.671Z,12.93
2023-01-23T00:59:59.610Z,16.80
2023-01-23T01:02:26.753Z,13.93
2023-01-23T01:04:53.657Z,14.80
2023-01-23T01:07:22.818Z,14.02
2023-01-23T01:09:49.722Z,13.23
2023-01-23T01:12:17.115Z,15.93
2023-01-23T01:14:43.998Z,13.35
2023-01-23T01:17:11.032Z,14.05
2023-01-23T01:19:37.971Z,14.05
2023-01-23T01:22:05.265Z,15.10
2023-01-23T01:24:32.168Z,13.52
2023-01-23T01:26:59.107Z,12.90
2023-01-23T01:29:25.979Z,15.60
2023-01-23T01:31:52.904Z,16.10
2023-01-23T01:34:20.683Z,14.45
2023-01-23T01:36:49.171Z,18.13
2023-01-23T01:39:16.457Z,14.15
2023-01-23T01:41:43.429Z,14.30
2023-01-23T01:44:19.227Z,14.93
2023-01-23T01:46:46.569Z,16.60
2023-01-23T01:49:21.244Z,18.52
2023-01-23T01:51:56.058Z,16.77
2023-01-23T01:54:32.304Z,18.27
2023-01-23T01:57:03.478Z,14.88
2023-01-23T01:59:35.277Z,15.10
2023-01-23T02:02:11.181Z,15.73
2023-01-23T02:04:44.204Z,15.98
2023-01-23T02:07:46.834Z,16.15
2023-01-23T02:10:14.390Z,16.20
2023-01-23T02:12:47.861Z,18.42
2023-01-23T02:15:15.935Z,14.30
2023-01-23T02:17:44.803Z,17.27
2023-01-23T02:20:28.671Z,17.75
2023-01-23T02:23:10.656Z,15.90
2023-01-23T02:25:43.923Z,17.42
2023-01-23T02:28:15.043Z,17.20
2023-01-23T02:30:47.106Z,16.45
2023-01-23T02:33:20.422Z,18.48
2023-01-23T02:35:47.876Z,20.08
2023-01-23T02:38:18.250Z,16.38
2023-01-23T02:40:45.265Z,17.33
2023-01-23T02:43:22.385Z,16.02
2023-01-23T02:45:56.420Z,16.15
2023-01-23T02:48:24.413Z,15.80
2023-01-23T02:50:51.330Z,13.20
2023-01-23T02:53:18.302Z,13.30
2023-01-23T02:55:45.937Z,13.05
2023-01-23T02:58:32.315Z,14.00
2023-01-23T03:00:59.345Z,14.25
2023-01-23T03:03:29.079Z,13.73
2023-01-23T03:05:56.235Z,14.60
2023-01-23T03:08:23.707Z,15.35
2023-01-23T03:10:51.211Z,15.00
2023-01-23T03:13:18.056Z,12.82
2023-01-23T03:15:44.918Z,13.93
2023-01-23T03:18:11.815Z,16.13
2023-01-23T03:20:40.531Z,17.35
2023-01-23T03:23:08.102Z,14.18
2023-01-23T03:25:34.955Z,17.73
2023-01-23T03:28:03.384Z,13.40
2023-01-23T03:30:30.303Z,13.25
2023-01-23T03:32:57.200Z,16.13
2023-01-23T03:35:24.143Z,16.70
2023-01-23T03:37:54.090Z,19.15
2023-01-23T03:40:42.357Z,16.90
2023-01-23T03:43:12.887Z,15.95
2023-01-23T03:45:45.203Z,17.38
2023-01-23T03:48:12.151Z,15.07
2023-01-23T03:50:39.141Z,21.67
2023-01-23T03:53:05.968Z,16.40
2023-01-23T03:55:32.936Z,14.50
2023-01-23T03:57:59.812Z,15.63
2023-01-23T04:00:29.473Z,18.80
2023-01-23T04:03:01.011Z,15.52
2023-01-23T04:05:28.843Z,16.98
2023-01-23T04:07:55.676Z,17.05
2023-01-23T04:10:23.999Z,14.73
2023-01-23T04:12:54.841Z,16.45
2023-01-23T04:15:21.912Z,16.17
2023-01-23T04:17:50.499Z,14.82
2023-01-23T04:20:17.499Z,18.83
2023-01-23T04:22:44.461Z,16.65
2023-01-23T04:25:11.548Z,14.98
2023-01-23T04:27:38.583Z,15.05
2023-01-23T04:30:07.759Z,14.00
2023-01-23T04:32:35.373Z,14.40
2023-01-23T04:35:02.766Z,15.98
2023-01-23T04:37:30.233Z,18.02
2023-01-23T04:39:57.137Z,15.95
2023-01-23T04:42:24.080Z,16.60
2023-01-23T04:45:05.607Z,16.88
2023-01-23T04:47:51.265Z,21.00
2023-01-23T04:50:18.398Z,16.17
2023-01-23T04:52:46.820Z,21.83
2023-01-23T04:55:14.273Z,19.17
2023-01-23T04:57:43.160Z,21.70
2023-01-23T05:00:19.365Z,18.63
2023-01-23T05:02:47.630Z,18.05
2023-01-23T05:05:17.368Z,17.40
2023-01-23T05:07:44.647Z,17.27
2023-01-23T05:10:15.232Z,17.33
2023-01-23T05:12:42.847Z,17.27
2023-01-23T05:15:10.932Z,18.95
2023-01-23T05:17:40.571Z,17.90
2023-01-23T05:20:08.498Z,18.30
2023-01-23T05:22:37.671Z,15.85
2023-01-23T05:25:04.994Z,18.98
2023-01-23T05:27:32.340Z,16.75
2023-01-23T05:29:59.912Z,17.50
2023-01-23T05:32:31.298Z,16.02
2023-01-23T05:35:11.541Z,16.73
2023-01-23T05:37:40.140Z,22.60
2023-01-23T05:40:11.921Z,19.98
2023-01-23T05:42:59.457Z,18.70
2023-01-23T05:45:44.654Z,19.05
2023-01-23T05:48:24.178Z,13.98
2023-01-23T05:50:51.443Z,19.65
2023-01-23T05:53:20.692Z,17.83
2023-01-23T05:55:47.983Z,16.73
2023-01-23T05:58:16.173Z,17.63
2023-01-23T06:01:18.799Z,15.55
2023-01-23T06:04:04.501Z,15.60
2023-01-23T06:06:49.998Z,17.55
2023-01-23T06:09:17.063Z,17.98
2023-01-23T06:11:44.033Z,18.60
2023-01-23T06:14:11.422Z,16.17
2023-01-23T06:16:38.758Z,16.35
2023-01-23T06:19:06.339Z,16.00
2023-01-23T06:21:36.320Z,16.67
2023-01-23T06:24:04.216Z,17.35
2023-01-23T06:26:33.392Z,18.95
2023-01-23T06:29:00.838Z,21.83
2023-01-23T06:31:30.474Z,21.52
2023-01-23T06:34:00.260Z,24.95
2023-01-23T06:36:36.707Z,26.10
2023-01-23T06:39:04.883Z,20.00
2023-01-23T06:41:45.843Z,22.98
2023-01-23T06:44:18.997Z,26.25
2023-01-23T06:46:46.435Z,21.30
2023-01-23T06:49:15.633Z,22.95
2023-01-23T06:51:42.469Z,21.55
2023-01-23T06:54:12.694Z,20.08
2023-01-23T06:56:40.566Z,20.85
2023-01-23T06:59:12.447Z,20.73
2023-01-23T07:01:40.897Z,20.00
2023-01-23T07:04:23.861Z,17.70
2023-01-23T07:06:51.990Z,24.98
2023-01-23T07:09:20.279Z,26.80
2023-01-23T07:11:59.349Z,27.52
2023-01-23T07:14:31.013Z,26.55
2023-01-23T07:16:59.047Z,22.58
2023-01-23T07:19:26.843Z,23.38
2023-01-23T07:21:55.824Z,22.90
2023-01-23T07:24:22.671Z,25.00
2023-01-23T07:26:49.923Z,22.52
2023-01-23T07:29:17.175Z,22.25
2023-01-23T07:31:44.463Z,21.98
2023-01-23T07:34:11.354Z,25.70
2023-01-23T07:36:38.631Z,22.65
2023-01-23T07:39:05.906Z,24.80
2023-01-23T07:41:33.181Z,24.30
2023-01-23T07:44:03.695Z,26.45
2023-01-23T07:46:31.018Z,23.55
2023-01-23T07:48:58.264Z,19.63
2023-01-23T07:51:25.605Z,20.98
2023-01-23T07:53:53.201Z,20.40
2023-01-23T07:56:20.477Z,19.88
2023-01-23T07:58:50.713Z,23.20
2023-01-23T08:03:47.575Z,18.60
2023-01-23T08:06:15.049Z,20.27
2023-01-23T08:08:42.279Z,21.50
2023-01-23T08:11:13.039Z,17.77
2023-01-23T08:13:40.600Z,21.85
2023-01-23T08:16:08.402Z,21.88
2023-01-23T08:18:35.514Z,20.23
2023-01-23T08:21:03.625Z,23.50
2023-01-23T08:23:32.826Z,16.85
2023-01-23T08:26:02.468Z,23.23
2023-01-23T08:28:29.705Z,23.30
2023-01-23T08:31:01.928Z,26.55
2023-01-23T08:33:29.210Z,22.42
2023-01-23T08:35:58.172Z,23.50
2023-01-23T08:38:25.884Z,22.92
2023-01-23T08:40:53.988Z,25.70
2023-01-23T08:43:21.356Z,29.30
2023-01-23T08:45:53.346Z,20.20
2023-01-23T08:48:24.467Z,24.00
2023-01-23T08:50:52.896Z,23.52
2023-01-23T08:53:20.238Z,22.77
2023-01-23T08:55:47.541Z,22.67
2023-01-23T08:58:14.789Z,22.35
2023-01-23T09:00:42.528Z,24.10
2023-01-23T09:03:11.415Z,23.27
2023-01-23T09:05:39.023Z,23.05
2023-01-23T09:08:06.343Z,24.67
2023-01-23T09:10:33.256Z,24.67
2023-01-23T09:13:00.603Z,22.33
2023-01-23T09:15:27.988Z,22.00
2023-01-23T09:17:55.188Z,20.20
2023-01-23T09:20:22.760Z,20.15
2023-01-23T09:22:50.156Z,21.92
2023-01-23T09:25:17.373Z,24.45
2023-01-23T09:27:44.736Z,20.88
2023-01-23T09:30:12.073Z,18.58
2023-01-23T09:32:38.898Z,17.88
2023-01-23T09:35:06.069Z,19.25
2023-01-23T09:37:58.565Z,18.45
2023-01-23T09:40:29.600Z,22.85
2023-01-23T09:43:02.624Z,20.88
2023-01-23T09:45:31.629Z,19.33
2023-01-23T09:48:22.383Z,21.10
2023-01-23T09:51:28.273Z,22.83
2023-01-23T09:54:01.594Z,25.58
2023-01-23T09:56:36.471Z,24.13
2023-01-23T09:59:32.036Z,21.05
2023-01-23T10:01:59.076Z,19.65
2023-01-23T10:04:26.332Z,21.35
2023-01-23T10:07:28.286Z,24.13
2023-01-23T10:10:27.081Z,20.00
2023-01-23T10:13:16.783Z,19.88
2023-01-23T10:16:16.804Z,21.15
2023-01-23T10:18:49.514Z,20.65
2023-01-23T10:21:51.974Z,20.73
2023-01-23T10:24:40.205Z,21.35
2023-01-23T10:27:34.604Z,22.00
2023-01-23T10:30:26.697Z,21.80
2023-01-23T10:33:12.986Z,21.67
2023-01-23T10:35:51.708Z,20.80
2023-01-23T10:38:35.350Z,21.77
2023-01-23T10:41:14.744Z,19.05
2023-01-23T10:43:42.651Z,21.00
2023-01-23T10:46:29.952Z,16.67
2023-01-23T10:48:57.291Z,20.23
2023-01-23T10:51:33.140Z,21.30
2023-01-23T10:54:13.023Z,21.30
2023-01-23T10:56:58.315Z,22.38
2023-01-23T10:59:30.531Z,21.52
2023-01-23T11:02:00.554Z,22.90
2023-01-23T11:04:30.385Z,22.77
2023-01-23T11:07:11.932Z,22.13
2023-01-23T11:09:52.575Z,20.13
2023-01-23T11:12:21.563Z,20.17
2023-01-23T11:14:49.195Z,21.60
2023-01-23T11:17:24.995Z,16.67
2023-01-23T11:19:54.550Z,17.55
2023-01-23T11:22:41.772Z,19.33
2023-01-23T11:25:38.159Z,17.02
2023-01-23T11:28:34.030Z,16.50
2023-01-23T11:31:19.091Z,15.27
2023-01-23T11:34:01.666Z,13.70
2023-01-23T11:36:57.703Z,19.30
2023-01-23T11:39:36.926Z,18.95
2023-01-23T11:42:04.469Z,17.83
2023-01-23T11:44:45.012Z,16.42
2023-01-23T11:47:18.470Z,19.13
2023-01-23T11:49:45.702Z,16.52
2023-01-23T11:52:12.963Z,20.10
2023-01-23T11:54:53.816Z,23.85
2023-01-23T11:57:33.768Z,15.00
2023-01-23T12:00:16.284Z,16.85
2023-01-23T12:02:51.871Z,17.70
2023-01-23T12:05:45.375Z,20.98
2023-01-23T12:08:25.774Z,20.42
2023-01-23T12:13:31.400Z,20.50
2023-01-23T12:16:26.487Z,21.48
2023-01-23T12:19:17.535Z,20.02
2023-01-23T12:22:25.974Z,22.17
2023-01-23T12:25:07.794Z,19.80
2023-01-23T12:27:45.156Z,19.45
2023-01-23T12:30:49.202Z,20.55
2023-01-23T12:33:44.207Z,19.85
2023-01-23T12:36:14.381Z,20.48
2023-01-23T12:39:04.526Z,18.88
2023-01-23T12:41:34.549Z,20.30
2023-01-23T12:44:23.008Z,19.52
2023-01-23T12:47:01.409Z,20.65
2023-01-23T12:49:44.712Z,19.08
2023-01-23T12:52:31.827Z,18.63
2023-01-23T12:55:08.046Z,21.42
2023-01-23T12:57:59.305Z,21.15
2023-01-23T13:00:46.549Z,18.48
2023-01-23T13:03:25.904Z,19.17
2023-01-23T13:05:59.792Z,18.42
2023-01-23T13:09:00.047Z,21.33
2023-01-23T13:12:08.814Z,22.52
2023-01-23T13:15:06.885Z,24.38
2023-01-23T13:18:59.683Z,24.65
2023-01-23T13:21:58.409Z,18.92
2023-01-23T13:25:03.341Z,21.27
2023-01-23T13:27:55.920Z,21.92
2023-01-23T13:30:39.876Z,21.55
2023-01-23T13:34:03.551Z,20.63
2023-01-23T13:39:04.403Z,26.48
2023-01-23T13:41:32.872Z,22.77
2023-01-23T13:44:04.958Z,22.70
2023-01-23T14:22:04.811Z,24.50
2023-01-23T14:24:55.231Z,24.70
2023-01-23T14:30:04.758Z,25.77
2023-01-23T14:32:33.462Z,24.02
2023-01-23T14:35:00.603Z,28.85
2023-01-23T14:37:29.283Z,24.27
2023-01-23T14:40:01.956Z,26.10
2023-01-23T14:42:34.774Z,25.52
2023-01-23T14:45:02.763Z,26.05
2023-01-23T14:47:35.269Z,23.10
2023-01-23T14:50:03.848Z,23.52
2023-01-23T14:52:31.860Z,29.50
2023-01-23T14:55:07.196Z,27.73
2023-01-23T14:57:36.148Z,24.10
2023-01-23T15:00:03.626Z,28.20
2023-01-23T15:02:33.772Z,24.48
2023-01-23T15:05:15.741Z,24.45
2023-01-23T15:07:54.974Z,28.20
2023-01-23T15:10:29.576Z,25.20
2023-01-23T15:13:11.580Z,24.80
2023-01-23T15:15:44.204Z,20.55
2023-01-23T15:18:23.476Z,24.60
2023-01-23T15:21:08.833Z,29.90
2023-01-23T15:23:37.811Z,21.77
2023-01-23T15:26:25.860Z,25.95
2023-01-23T15:28:57.338Z,24.52
2023-01-23T15:31:39.715Z,24.15
2023-01-23T15:34:15.870Z,25.50
2023-01-23T15:36:53.721Z,27.55
2023-01-23T15:39:22.937Z,24.63
2023-01-23T15:42:02.565Z,27.33
2023-01-23T15:44:31.752Z,27.10
2023-01-23T15:47:03.937Z,26.17
2023-01-23T15:49:38.603Z,25.35
2023-01-23T15:52:30.499Z,29.45
2023-01-23T15:55:01.656Z,26.27
2023-01-23T15:57:28.551Z,25.90
2023-01-23T15:59:55.456Z,23.35
2023-01-23T16:02:30.621Z,25.73
2023-01-23T16:04:58.780Z,28.35
2023-01-23T16:07:31.321Z,24.00
2023-01-23T16:09:58.389Z,24.98
2023-01-23T16:12:28.801Z,26.50
2023-01-23T16:14:56.377Z,24.08
2023-01-23T16:17:23.710Z,25.75
2023-01-23T16:19:50.782Z,28.25
2023-01-23T16:22:29.435Z,24.42
2023-01-23T16:24:57.760Z,22.88
2023-01-23T16:27:27.943Z,23.95
2023-01-23T16:29:56.087Z,22.25
2023-01-23T16:32:23.249Z,27.65
2023-01-23T16:34:50.231Z,23.80
2023-01-23T16:37:18.898Z,22.85
2023-01-23T16:39:47.678Z,19.02
2023-01-23T16:42:23.696Z,20.75
2023-01-23T16:44:50.948Z,23.88
2023-01-23T16:47:17.910Z,20.88
2023-01-23T16:49:53.793Z,22.10
2023-01-23T16:52:24.135Z,25.55
2023-01-23T16:54:53.215Z,20.70
2023-01-23T16:57:21.204Z,22.90
2023-01-23T16:59:50.071Z,20.40
2023-01-23T17:02:20.510Z,25.95
2023-01-23T17:04:47.416Z,22.65
2023-01-23T17:07:17.174Z,19.15
2023-01-23T17:09:45.069Z,27.08
2023-01-23T17:12:21.032Z,24.27
2023-01-23T17:14:49.239Z,25.90
2023-01-23T17:17:26.707Z,26.42
2023-01-23T17:19:54.649Z,23.27
2023-01-23T17:22:26.206Z,24.00
2023-01-23T17:24:53.645Z,25.58
2023-01-23T17:27:20.609Z,22.40
2023-01-23T17:29:47.529Z,21.85
2023-01-23T17:32:34.617Z,24.45
2023-01-23T17:35:06.429Z,27.40
2023-01-23T17:37:34.545Z,25.20
2023-01-23T17:40:02.122Z,23.40
2023-01-23T17:42:29.377Z,21.73
2023-01-23T17:44:56.641Z,27.45
2023-01-23T17:47:24.042Z,25.38
2023-01-23T17:49:52.783Z,26.42
2023-01-23T17:52:21.691Z,23.83
2023-01-23T17:54:49.449Z,23.77
2023-01-23T17:57:16.766Z,30.25
2023-01-23T17:59:44.223Z,34.53
2023-01-23T18:02:36.897Z,26.48
2023-01-23T18:05:05.272Z,25.75
2023-01-23T18:07:45.386Z,28.92
2023-01-23T18:10:24.018Z,27.45
2023-01-23T18:13:05.624Z,28.73
2023-01-23T18:15:44.628Z,31.20
2023-01-23T18:18:29.158Z,31.35
2023-01-23T18:20:57.054Z,31.70
2023-01-23T18:23:25.942Z,27.83
2023-01-23T18:26:00.880Z,29.63
2023-01-23T18:28:31.921Z,32.55
2023-01-23T18:31:04.025Z,27.20
2023-01-23T18:33:43.175Z,28.60
2023-01-23T18:36:28.214Z,28.48
2023-01-23T18:39:29.912Z,25.52
2023-01-23T18:42:15.568Z,33.15
2023-01-23T18:44:51.714Z,28.52
2023-01-23T18:47:18.997Z,33.58
2023-01-23T18:49:46.542Z,28.60
2023-01-23T18:52:19.520Z,32.75
2023-01-23T18:55:24.528Z,31.25
2023-01-23T18:58:19.008Z,30.85
2023-01-23T19:01:08.969Z,24.58
2023-01-23T19:03:42.686Z,29.95
2023-01-23T19:06:19.929Z,24.70
2023-01-23T19:08:48.401Z,31.55
2023-01-23T19:11:46.537Z,34.13
2023-01-23T19:14:22.924Z,30.98
2023-01-23T19:16:58.880Z,34.92
2023-01-23T19:19:32.694Z,39.13
2023-01-23T19:22:00.161Z,26.52
2023-01-23T19:24:28.236Z,26.23
2023-01-23T19:26:55.473Z,19.58
2023-01-23T19:29:23.409Z,21.67
2023-01-23T19:32:07.103Z,22.85
2023-01-23T19:34:35.058Z,17.48
2023-01-23T19:37:02.947Z,16.92
2023-01-23T19:39:30.905Z,17.95
2023-01-23T19:41:59.179Z,16.20
2023-01-23T19:44:28.926Z,13.05
2023-01-23T19:46:56.152Z,16.33
2023-01-23T19:49:25.191Z,13.68
2023-01-23T19:51:52.649Z,12.13
2023-01-23T19:54:22.220Z,11.77
2023-01-23T19:56:51.264Z,10.95
2023-01-23T19:59:18.680Z,11.88
2023-01-23T20:01:48.599Z,11.18
2023-01-23T20:04:18.673Z,13.48
2023-01-23T20:06:46.118Z,12.73
2023-01-23T20:09:16.352Z,9.68
2023-01-23T20:14:11.630Z,8.95
2023-01-23T20:16:41.125Z,10.55
2023-01-23T20:19:18.740Z,10.20
2023-01-23T20:21:48.436Z,11.15
2023-01-23T20:24:16.343Z,10.88
2023-01-23T20:26:44.422Z,8.90
2023-01-23T20:29:16.982Z,11.10
2023-01-23T20:31:48.697Z,10.52
2023-01-23T20:34:16.414Z,12.55
2023-01-23T20:36:47.023Z,9.13
2023-01-23T20:39:16.023Z,11.70
2023-01-23T20:41:45.547Z,10.18
2023-01-23T20:44:13.055Z,10.70
2023-01-23T20:46:40.382Z,11.73
2023-01-23T20:49:08.615Z,8.23
2023-01-23T20:51:35.962Z,10.57
2023-01-23T20:54:03.571Z,11.73
2023-01-23T20:56:31.090Z,11.27
2023-01-23T20:59:17.107Z,10.15
2023-01-23T21:02:03.598Z,9.07
2023-01-23T21:04:33.737Z,11.15
2023-01-23T21:07:01.365Z,9.38
2023-01-23T21:09:28.355Z,10.15
2023-01-23T21:11:56.300Z,9.20
2023-01-23T21:14:23.977Z,10.57
2023-01-23T21:16:51.311Z,10.88
2023-01-23T21:19:19.356Z,11.00
2023-01-23T21:21:47.097Z,7.63
2023-01-23T21:24:14.563Z,10.52
2023-01-23T21:26:42.001Z,10.25
2023-01-23T21:29:09.637Z,11.45
2023-01-23T21:31:39.349Z,13.43
2023-01-23T21:34:10.986Z,9.73
2023-01-23T21:36:38.933Z,8.68
2023-01-23T21:39:08.660Z,9.90
2023-01-23T21:41:37.229Z,8.27
2023-01-23T21:44:04.632Z,8.85
2023-01-23T21:46:32.308Z,9.35
2023-01-23T21:48:59.736Z,8.63
2023-01-23T21:51:27.870Z,11.20
2023-01-23T21:53:55.338Z,7.32
2023-01-23T21:56:25.620Z,9.68
2023-01-23T22:01:32.021Z,10.27
2023-01-23T22:04:11.739Z,9.27
2023-01-23T22:06:41.147Z,8.68
2023-01-23T22:09:09.663Z,7.43
2023-01-23T22:11:41.776Z,7.03
2023-01-23T22:14:09.062Z,9.45
2023-01-23T22:16:47.980Z,7.50
2023-01-23T22:19:17.863Z,11.70
2023-01-23T22:21:46.693Z,7.43
2023-01-23T22:24:14.456Z,7.35
2023-01-23T22:26:41.993Z,7.80
2023-01-23T22:29:09.590Z,8.13
2023-01-23T22:31:37.060Z,6.45
2023-01-23T22:34:04.494Z,5.95
2023-01-23T22:36:31.886Z,6.15
2023-01-23T22:38:59.152Z,7.55
2023-01-23T22:41:26.613Z,7.25
2023-01-23T22:43:54.573Z,8.05
2023-01-23T22:46:22.910Z,8.35
2023-01-23T22:48:50.241Z,6.15
2023-01-23T22:51:24.484Z,6.97
2023-01-23T22:53:52.522Z,7.80
2023-01-23T22:56:20.549Z,7.50
2023-01-23T22:58:49.245Z,9.60
2023-01-23T23:01:17.214Z,8.45
2023-01-23T23:03:44.901Z,6.80
2023-01-23T23:06:15.260Z,6.85
2023-01-23T23:11:14.685Z,8.15
2023-01-23T23:13:42.221Z,7.50
2023-01-23T23:16:13.760Z,7.22
2023-01-23T23:18:41.422Z,7.30
2023-01-23T23:21:10.528Z,9.38
2023-01-23T23:23:38.078Z,6.38
2023-01-23T23:26:06.952Z,6.25
2023-01-23T23:28:34.856Z,6.72
2023-01-23T23:31:02.154Z,7.20
2023-01-23T23:33:29.875Z,6.35
2023-01-23T23:35:57.056Z,6.43
2023-01-23T23:38:24.279Z,8.90
2023-01-23T23:40:59.122Z,7.40
2023-01-23T23:43:26.672Z,8.75
2023-01-23T23:45:55.540Z,6.13
2023-01-23T23:48:23.429Z,7.50
2023-01-23T23:50:51.124Z,7.22
2023-01-23T23:53:18.648Z,8.00
2023-01-23T23:55:46.068Z,8.10
2023-01-23T23:58:13.694Z,9.57
